Íslenskir flugvellir

Veldu flugvelli í þeirri röð sem þeir eiga að birtast og styddu á hnappinn

Uppfært síðast 27.11.2021 - kl. 18:41

SIGMET síðustu 6 klst.

BIRD SIGMET A01 VALID 271400/271700 BIRK- BIRD REYKJAVIK CTA SEV ICE FCST WI N6620 W04140 - N6600 W03630 - N6340 W03940 - N6350 W04420 - N6620 W04140 FL200/280 STNR NC

Vestmannaeyjar

METAR síðustu 3 klst

TímiSkeyti
2021-11-27 18.00METAR BIVM 271800Z 04006KT 0500 FG OVC002 03/03 Q1010
2021-11-27 17.00METAR BIVM 271700Z 04009KT 0500 RA FG OVC002 03/03 Q1010
2021-11-27 16.00METAR BIVM 271600Z 09010KT 0500 RA FG OVC002 04/03 Q1010

TAF

TAFBIVM2021-11-27 16.06Z27170209012KT 7000 -RA BKN015 OVC025 TEMPO 2717/2719 0500 RA FG VV002 BECMG 2719/2721 35010KT 9999 NSW SCT025 BKN040

Allur vindur er réttvísandi bæði í Metar og frá sjálfvirkum veðurstöðvum




Aðrir tengdir vefir



Þetta vefsvæði byggir á Eplica